Time;durP1;ratioP1;P1;durP2;ratioP2;P2;SDS_P1;SDS_P2;PMS_P1;PMS_P2;Temp;Humidity;BMP_temperature;BMP_pressure;BME280_temperature;BME280_humidity;BME280_pressure;Samples;Min_cycle;Max_cycle;Signal;HPM_P1;HPM_P2
2023/05/03 00:02:25;;;;;;;8.63;7.82;;;;;;;;;;5003443;28;20049;-81
2023/05/03 00:04:53;;;;;;;8.63;7.18;;;;;;;;;;4999295;28;20496;-80
2023/05/03 00:07:21;;;;;;;7.47;6.78;;;;;;;;;;5003272;28;20081;-81
2023/05/03 00:09:49;;;;;;;7.20;6.60;;;;;;;;;;5001364;28;20092;-80
2023/05/03 00:12:16;;;;;;;9.38;7.38;;;;;;;;;;5004541;28;20070;-80
2023/05/03 00:14:45;;;;;;;8.63;7.82;;;;;;;;;;5003372;28;20575;-80
2023/05/03 00:17:12;;;;;;;8.20;7.45;;;;;;;;;;5000408;28;20068;-80
2023/05/03 00:19:41;;;;;;;7.82;7.15;;;;;;;;;;5014409;28;20124;-81
2023/05/03 00:22:08;;;;;;;7.43;6.82;;;;;;;;;;5007010;28;20030;-80
2023/05/03 00:24:36;;;;;;;8.20;7.40;;;;;;;;;;5004492;28;20054;-80
2023/05/03 00:27:03;;;;;;;8.52;7.72;;;;;;;;;;5001083;28;20124;-80
2023/05/03 00:29:31;;;;;;;7.90;7.10;;;;;;;;;;5008598;28;20112;-80
2023/05/03 00:31:59;;;;;;;7.03;6.43;;;;;;;;;;4998528;28;20049;-80
2023/05/03 00:34:27;;;;;;;8.27;6.03;;;;;;;;;;5015064;28;20050;-80
2023/05/03 00:36:54;;;;;;;8.00;7.22;;;;;;;;;;5003058;28;20052;-81
2023/05/03 00:39:22;;;;;;;8.90;8.07;;;;;;;;;;5000664;28;20061;-80
2023/05/03 00:41:49;;;;;;;11.18;8.18;;;;;;;;;;5006634;28;20100;-81
2023/05/03 00:44:16;;;;;;;10.40;9.35;;;;;;;;;;5005071;28;20132;-80
2023/05/03 00:46:44;;;;;;;8.68;7.85;;;;;;;;;;5005641;28;20127;-80
2023/05/03 00:49:11;;;;;;;8.95;8.07;;;;;;;;;;4995118;28;20042;-80
2023/05/03 00:51:40;;;;;;;12.10;10.43;;;;;;;;;;4999675;28;20161;-80
2023/05/03 00:54:08;;;;;;;10.65;9.55;;;;;;;;;;5001860;28;20056;-81
2023/05/03 00:56:35;;;;;;;11.15;9.93;;;;;;;;;;5000592;28;20310;-80
2023/05/03 00:59:17;;;;;;;10.05;9.15;;;;;;;;;;5002746;28;20073;-81
2023/05/03 01:01:52;;;;;;;11.82;9.95;;;;;;;;;;5001558;28;20549;-81
2023/05/03 01:04:20;;;;;;;9.30;8.40;;;;;;;;;;5004653;28;20081;-80
2023/05/03 01:06:56;;;;;;;13.25;9.38;;;;;;;;;;5003940;28;20539;-80
2023/05/03 01:09:42;;;;;;;12.02;9.63;;;;;;;;;;5001437;28;20050;-81
2023/05/03 01:12:12;;;;;;;10.63;9.45;;;;;;;;;;5000247;28;20049;-81
2023/05/03 01:14:49;;;;;;;14.15;9.63;;;;;;;;;;4999422;28;20049;-81
2023/05/03 01:17:17;;;;;;;11.43;10.00;;;;;;;;;;5001662;28;20046;-80
2023/05/03 01:19:51;;;;;;;12.77;10.73;;;;;;;;;;5005625;28;20631;-81
2023/05/03 01:22:21;;;;;;;14.38;10.80;;;;;;;;;;4998082;28;20077;-80
2023/05/03 01:24:51;;;;;;;17.63;10.77;;;;;;;;;;5004541;28;20474;-80
2023/05/03 01:27:18;;;;;;;12.30;11.00;;;;;;;;;;5000100;28;20451;-80
2023/05/03 01:29:45;;;;;;;14.15;11.20;;;;;;;;;;5000921;28;20058;-80
2023/05/03 01:32:17;;;;;;;14.05;11.65;;;;;;;;;;5000512;28;20550;-81
2023/05/03 01:34:54;;;;;;;14.73;11.10;;;;;;;;;;5000406;28;20054;-80
2023/05/03 01:37:22;;;;;;;12.88;10.75;;;;;;;;;;4993169;28;20046;-80
2023/05/03 01:40:06;;;;;;;11.60;10.40;;;;;;;;;;5009748;28;20079;-80
2023/05/03 01:42:35;;;;;;;15.75;11.23;;;;;;;;;;5000668;28;21846;-80
2023/05/03 01:45:04;;;;;;;13.40;10.40;;;;;;;;;;5004158;28;20049;-80
2023/05/03 01:47:31;;;;;;;9.43;8.57;;;;;;;;;;5007936;28;20701;-79
2023/05/03 01:49:59;;;;;;;8.95;8.05;;;;;;;;;;5004396;28;20365;-80
2023/05/03 01:52:27;;;;;;;9.07;8.18;;;;;;;;;;5003432;28;20116;-80
2023/05/03 01:54:54;;;;;;;9.68;8.77;;;;;;;;;;5008113;28;20050;-80
2023/05/03 01:57:21;;;;;;;9.48;8.60;;;;;;;;;;4997759;28;20474;-80
2023/05/03 01:59:48;;;;;;;11.25;10.15;;;;;;;;;;4996209;28;20057;-80
2023/05/03 02:02:16;;;;;;;14.48;11.55;;;;;;;;;;5000290;28;20049;-80
2023/05/03 02:04:43;;;;;;;11.57;10.23;;;;;;;;;;5003582;28;20464;-80
2023/05/03 02:07:11;;;;;;;11.27;10.23;;;;;;;;;;5008118;28;20109;-80
2023/05/03 02:09:39;;;;;;;11.52;10.38;;;;;;;;;;5000751;28;20068;-79
2023/05/03 02:12:06;;;;;;;13.02;10.68;;;;;;;;;;5001000;28;20045;-80
2023/05/03 02:14:34;;;;;;;11.05;9.27;;;;;;;;;;5005729;28;20053;-80
2023/05/03 02:17:02;;;;;;;9.80;8.68;;;;;;;;;;5001802;28;20062;-81
2023/05/03 02:19:29;;;;;;;9.02;8.10;;;;;;;;;;5002082;28;20568;-80
2023/05/03 02:21:57;;;;;;;8.68;7.80;;;;;;;;;;4995257;28;20554;-80
2023/05/03 02:24:24;;;;;;;7.53;6.93;;;;;;;;;;4996801;28;20038;-80
2023/05/03 02:26:51;;;;;;;7.82;7.13;;;;;;;;;;5006656;28;20418;-80
2023/05/03 02:29:19;;;;;;;7.07;6.30;;;;;;;;;;5003612;28;20073;-80
2023/05/03 02:31:47;;;;;;;7.18;6.47;;;;;;;;;;5000872;28;20050;-79
2023/05/03 02:34:14;;;;;;;8.13;6.57;;;;;;;;;;5004203;28;20046;-80
2023/05/03 02:36:42;;;;;;;7.22;6.63;;;;;;;;;;5002534;28;20129;-80
2023/05/03 02:39:10;;;;;;;6.68;6.18;;;;;;;;;;5006294;28;20125;-80
2023/05/03 02:41:37;;;;;;;6.90;6.40;;;;;;;;;;4995058;28;20512;-79
2023/05/03 02:44:05;;;;;;;9.88;6.90;;;;;;;;;;4999875;28;20046;-80
2023/05/03 02:46:32;;;;;;;7.57;6.22;;;;;;;;;;5003776;28;20100;-80
2023/05/03 02:48:59;;;;;;;7.22;6.63;;;;;;;;;;5001189;28;20132;-80
2023/05/03 02:51:27;;;;;;;7.18;6.57;;;;;;;;;;4998780;28;20688;-79
2023/05/03 02:53:54;;;;;;;7.63;6.93;;;;;;;;;;5005029;28;20741;-79
2023/05/03 02:56:24;;;;;;;7.20;6.60;;;;;;;;;;5004217;28;20052;-80
2023/05/03 02:58:52;;;;;;;8.27;7.57;;;;;;;;;;5004481;28;20046;-79
2023/05/03 03:01:21;;;;;;;9.50;7.82;;;;;;;;;;5001753;28;20113;-80
2023/05/03 03:03:48;;;;;;;8.48;7.78;;;;;;;;;;5004622;28;20049;-80
2023/05/03 03:06:16;;;;;;;9.30;8.40;;;;;;;;;;5005163;28;20079;-79
2023/05/03 03:08:43;;;;;;;9.00;8.02;;;;;;;;;;5005787;28;20569;-80
2023/05/03 03:11:11;;;;;;;11.30;8.52;;;;;;;;;;5001030;28;20500;-80
2023/05/03 03:13:40;;;;;;;16.92;8.48;;;;;;;;;;5005093;28;20054;-80
2023/05/03 03:16:08;;;;;;;11.75;8.48;;;;;;;;;;4997612;28;20054;-81
2023/05/03 03:18:36;;;;;;;25.15;9.52;;;;;;;;;;5003246;28;20045;-80
2023/05/03 03:21:03;;;;;;;11.25;10.13;;;;;;;;;;5003087;28;20041;-80
2023/05/03 03:23:33;;;;;;;14.65;8.80;;;;;;;;;;5003043;28;20045;-80
2023/05/03 03:26:01;;;;;;;13.15;9.05;;;;;;;;;;5007922;28;20065;-80
2023/05/03 03:28:28;;;;;;;13.00;9.80;;;;;;;;;;5006283;28;20136;-81
2023/05/03 03:31:00;;;;;;;10.55;8.82;;;;;;;;;;5003650;28;20135;-80
2023/05/03 03:33:27;;;;;;;16.45;8.65;;;;;;;;;;4999203;28;20058;-80
2023/05/03 03:36:05;;;;;;;16.60;8.43;;;;;;;;;;5002712;28;20050;-81
2023/05/03 03:38:40;;;;;;;8.60;6.05;;;;;;;;;;5008537;28;20132;-81
2023/05/03 03:41:11;;;;;;;5.68;5.18;;;;;;;;;;5007675;28;20358;-80
2023/05/03 03:43:40;;;;;;;8.13;5.10;;;;;;;;;;4989274;28;20042;-80
2023/05/03 03:46:14;;;;;;;5.57;5.07;;;;;;;;;;5000124;28;20108;-81
2023/05/03 03:48:42;;;;;;;11.05;5.32;;;;;;;;;;5005999;28;20072;-81
2023/05/03 03:51:10;;;;;;;8.90;5.45;;;;;;;;;;5012930;28;20580;-82
2023/05/03 03:53:43;;;;;;;5.40;4.90;;;;;;;;;;5008690;28;20173;-82
2023/05/03 03:56:12;;;;;;;4.00;3.70;;;;;;;;;;5011143;28;20077;-82
2023/05/03 03:59:06;;;;;;;6.80;3.50;;;;;;;;;;5001460;28;20049;-84
2023/05/03 04:01:34;;;;;;;4.30;3.92;;;;;;;;;;5011365;28;20122;-81
2023/05/03 04:07:57;;;;;;;4.90;4.50;;;;;;;;;;4982440;28;20111;-80
2023/05/03 04:10:27;;;;;;;5.65;5.05;;;;;;;;;;5005224;28;20055;-80
2023/05/03 04:12:55;;;;;;;4.25;3.95;;;;;;;;;;4993378;28;20052;-80
2023/05/03 04:15:23;;;;;;;3.50;3.30;;;;;;;;;;5006909;28;20062;-80
2023/05/03 04:17:55;;;;;;;3.75;3.40;;;;;;;;;;4992196;28;20631;-81
2023/05/03 04:20:23;;;;;;;4.05;3.75;;;;;;;;;;4999394;28;20112;-81
2023/05/03 04:22:51;;;;;;;5.75;5.25;;;;;;;;;;4997991;28;20052;-81
2023/05/03 04:25:22;;;;;;;5.13;4.63;;;;;;;;;;5010716;28;20046;-80
2023/05/03 04:27:58;;;;;;;4.75;4.45;;;;;;;;;;5011022;28;20050;-80
2023/05/03 04:30:28;;;;;;;5.30;4.90;;;;;;;;;;5010323;28;20060;-81
2023/05/03 04:32:59;;;;;;;4.20;3.90;;;;;;;;;;5011495;28;20538;-81
2023/05/03 04:35:29;;;;;;;4.28;3.97;;;;;;;;;;5013012;28;20061;-81
2023/05/03 04:37:58;;;;;;;4.38;3.97;;;;;;;;;;5004427;28;20093;-82
2023/05/03 04:40:27;;;;;;;5.28;4.78;;;;;;;;;;5006544;28;20046;-81
2023/05/03 04:43:01;;;;;;;4.43;4.13;;;;;;;;;;5006061;28;20758;-81
2023/05/03 04:45:31;;;;;;;5.05;4.65;;;;;;;;;;4996830;28;20065;-82
2023/05/03 04:47:58;;;;;;;4.57;4.18;;;;;;;;;;4991287;28;20109;-82
2023/05/03 04:50:25;;;;;;;4.72;4.32;;;;;;;;;;4993947;28;20053;-81
2023/05/03 04:52:53;;;;;;;3.92;3.63;;;;;;;;;;4991714;28;20119;-81
2023/05/03 04:55:23;;;;;;;4.05;3.75;;;;;;;;;;5003238;28;22089;-81
2023/05/03 04:57:52;;;;;;;4.80;4.40;;;;;;;;;;5005952;28;20041;-81
2023/05/03 05:00:21;;;;;;;4.47;4.07;;;;;;;;;;5005782;28;20060;-81
2023/05/03 05:02:56;;;;;;;4.55;4.25;;;;;;;;;;5008054;28;20041;-81
2023/05/03 05:05:27;;;;;;;3.97;3.70;;;;;;;;;;5004043;28;20050;-81
2023/05/03 05:07:55;;;;;;;3.95;3.63;;;;;;;;;;5005245;28;20069;-81
2023/05/03 05:10:22;;;;;;;4.13;3.83;;;;;;;;;;4984506;28;20073;-80
2023/05/03 05:12:54;;;;;;;4.00;3.70;;;;;;;;;;4995153;28;20633;-82
2023/05/03 05:15:22;;;;;;;4.15;3.85;;;;;;;;;;4980756;28;20050;-81
2023/05/03 05:17:50;;;;;;;4.38;4.00;;;;;;;;;;5004255;28;20052;-81
2023/05/03 05:20:19;;;;;;;4.25;3.90;;;;;;;;;;5000320;28;20038;-81
2023/05/03 05:22:49;;;;;;;4.50;4.10;;;;;;;;;;5003770;28;20050;-82
2023/05/03 05:25:18;;;;;;;5.28;4.88;;;;;;;;;;5002535;28;20057;-82
2023/05/03 05:27:46;;;;;;;5.50;5.10;;;;;;;;;;5017808;28;20508;-81
2023/05/03 05:30:15;;;;;;;4.43;4.13;;;;;;;;;;5002656;28;20057;-81
2023/05/03 05:32:43;;;;;;;5.18;4.78;;;;;;;;;;5003494;28;20088;-81
2023/05/03 05:35:12;;;;;;;5.30;4.90;;;;;;;;;;5002863;28;20073;-82
2023/05/03 05:37:40;;;;;;;5.25;4.75;;;;;;;;;;5005859;28;20499;-81
2023/05/03 05:40:08;;;;;;;5.05;4.60;;;;;;;;;;5008173;28;20042;-81
2023/05/03 05:42:41;;;;;;;5.10;4.70;;;;;;;;;;5002467;28;20644;-81
2023/05/03 05:45:09;;;;;;;5.20;4.80;;;;;;;;;;5004730;28;20044;-81
2023/05/03 05:47:38;;;;;;;5.10;4.70;;;;;;;;;;5002683;28;20054;-81
2023/05/03 05:50:06;;;;;;;5.07;4.68;;;;;;;;;;4997991;28;20057;-81
2023/05/03 05:52:47;;;;;;;5.30;4.90;;;;;;;;;;5003478;28;20041;-81
2023/05/03 05:55:15;;;;;;;5.60;4.93;;;;;;;;;;5007651;28;20054;-81
2023/05/03 05:57:45;;;;;;;12.23;6.13;;;;;;;;;;5009780;28;20140;-81
2023/05/03 06:00:16;;;;;;;15.27;6.32;;;;;;;;;;5000988;28;20049;-80
2023/05/03 06:02:52;;;;;;;5.25;4.85;;;;;;;;;;5005304;28;20045;-80
2023/05/03 06:05:58;;;;;;;4.80;4.40;;;;;;;;;;4994478;28;20046;-80
2023/05/03 06:08:25;;;;;;;6.57;5.18;;;;;;;;;;4997247;28;20070;-80
2023/05/03 06:10:53;;;;;;;4.57;4.18;;;;;;;;;;4998502;28;20562;-80
2023/05/03 06:13:21;;;;;;;5.85;5.35;;;;;;;;;;5007132;28;20109;-80
2023/05/03 06:15:50;;;;;;;22.08;6.50;;;;;;;;;;5008575;28;20136;-80
2023/05/03 06:18:17;;;;;;;9.20;6.45;;;;;;;;;;5007597;28;20102;-81
2023/05/03 06:20:48;;;;;;;14.10;6.95;;;;;;;;;;5023442;28;20045;-82
2023/05/03 06:23:17;;;;;;;8.13;7.35;;;;;;;;;;5025154;28;20046;-81
2023/05/03 06:25:47;;;;;;;8.13;6.70;;;;;;;;;;5022865;28;20061;-81
2023/05/03 06:28:16;;;;;;;;;;;;;;;;;;5032191;28;20038;-81
2023/05/03 06:30:48;;;;;;;6.90;6.30;;;;;;;;;;5017629;28;19942;-81
2023/05/03 06:33:16;;;;;;;7.43;6.75;;;;;;;;;;5022495;28;20033;-81
2023/05/03 06:35:46;;;;;;;7.93;7.22;;;;;;;;;;5024509;28;20068;-80
2023/05/03 06:38:15;;;;;;;7.63;6.95;;;;;;;;;;5013929;28;20042;-81
2023/05/03 06:40:44;;;;;;;6.90;6.30;;;;;;;;;;5010347;28;20357;-80
2023/05/03 06:43:12;;;;;;;6.28;5.68;;;;;;;;;;5019252;28;20046;-81
2023/05/03 06:45:50;;;;;;;6.38;5.88;;;;;;;;;;5023371;28;20056;-81
2023/05/03 06:48:18;;;;;;;8.23;6.60;;;;;;;;;;5029936;28;20037;-78
2023/05/03 06:50:45;;;;;;;7.63;7.03;;;;;;;;;;5023631;28;20034;-80
2023/05/03 06:53:14;;;;;;;6.90;6.30;;;;;;;;;;5040885;28;20026;-81
2023/05/03 06:55:45;;;;;;;6.28;5.78;;;;;;;;;;5022398;28;20038;-81
2023/05/03 06:58:12;;;;;;;8.32;7.53;;;;;;;;;;5024333;28;20065;-78
2023/05/03 07:00:40;;;;;;;7.22;6.57;;;;;;;;;;5020883;28;20056;-80
2023/05/03 07:03:07;;;;;;;6.15;5.43;;;;;;;;;;5039318;23;20045;-82
2023/05/03 07:05:35;;;;;;;7.05;6.30;;;;;;;;;;5030245;28;20577;-85
2023/05/03 07:08:02;;;;;;;6.50;6.00;;;;;;;;;;5019576;28;20050;-81
2023/05/03 07:10:30;;;;;;;4.80;4.40;;;;;;;;;;5009453;28;20057;-86
2023/05/03 07:12:57;;;;;;;4.97;4.57;;;;;;;;;;5013193;28;20045;-82
2023/05/03 07:15:25;;;;;;;6.82;6.22;;;;;;;;;;5016390;28;20310;-83
2023/05/03 07:17:52;;;;;;;5.47;5.00;;;;;;;;;;5013540;28;20179;-84
2023/05/03 07:20:20;;;;;;;3.67;3.38;;;;;;;;;;5002685;28;20518;-86
2023/05/03 07:22:47;;;;;;;3.90;3.42;;;;;;;;;;5002792;28;20046;-81
2023/05/03 07:25:16;;;;;;;5.93;4.25;;;;;;;;;;5004774;28;20046;-85
2023/05/03 07:27:44;;;;;;;5.47;4.40;;;;;;;;;;5011875;28;20061;-82
2023/05/03 07:30:11;;;;;;;5.97;5.32;;;;;;;;;;5005434;28;20056;-82
2023/05/03 07:32:42;;;;;;;5.57;5.13;;;;;;;;;;5010995;28;20103;-85
2023/05/03 07:36:29;;;;;;;4.65;4.25;;;;;;;;;;5019134;28;20044;-85
2023/05/03 07:39:03;;;;;;;4.68;4.28;;;;;;;;;;5010287;28;20099;-85
2023/05/03 07:41:53;;;;;;;4.18;3.78;;;;;;;;;;4996762;28;20140;-87
2023/05/03 07:44:46;;;;;;;4.60;4.28;;;;;;;;;;5008701;28;20049;-85
2023/05/03 07:47:13;;;;;;;4.50;4.10;;;;;;;;;;4997826;28;20423;-83
2023/05/03 07:49:41;;;;;;;4.80;4.40;;;;;;;;;;5027048;28;20053;-82
2023/05/03 07:52:08;;;;;;;3.63;3.42;;;;;;;;;;5028363;28;20049;-85
2023/05/03 07:54:37;;;;;;;3.97;3.60;;;;;;;;;;5009181;28;20045;-83
2023/05/03 07:57:06;;;;;;;3.70;3.40;;;;;;;;;;5023227;28;20489;-85
2023/05/03 07:59:33;;;;;;;3.30;3.10;;;;;;;;;;5031168;28;20094;-83
2023/05/03 08:02:00;;;;;;;3.17;2.97;;;;;;;;;;5025012;28;20065;-82
2023/05/03 08:04:28;;;;;;;3.20;3.00;;;;;;;;;;5029567;28;20499;-84
2023/05/03 08:07:06;;;;;;;3.60;3.40;;;;;;;;;;5010002;28;20047;-80
2023/05/03 08:09:40;;;;;;;4.25;3.95;;;;;;;;;;5028933;28;20068;-79
2023/05/03 08:12:07;;;;;;;4.18;3.78;;;;;;;;;;5028834;28;20049;-82
2023/05/03 08:14:36;;;;;;;3.75;3.55;;;;;;;;;;5025053;28;20412;-83
2023/05/03 08:17:03;;;;;;;4.13;3.83;;;;;;;;;;5027615;28;20443;-81
2023/05/03 08:19:31;;;;;;;3.30;3.10;;;;;;;;;;5027305;28;20100;-83
2023/05/03 08:21:58;;;;;;;4.72;4.43;;;;;;;;;;5035634;28;20566;-80
2023/05/03 08:24:27;;;;;;;4.20;3.90;;;;;;;;;;5024024;28;20088;-79
2023/05/03 08:26:57;;;;;;;4.22;3.92;;;;;;;;;;5028486;28;20095;-80
2023/05/03 08:29:25;;;;;;;3.40;3.10;;;;;;;;;;5025960;28;20049;-83
2023/05/03 08:31:54;;;;;;;3.45;3.25;;;;;;;;;;5031648;28;20140;-85
2023/05/03 08:34:21;;;;;;;4.25;3.95;;;;;;;;;;5030553;28;20053;-80
2023/05/03 08:36:49;;;;;;;4.90;4.55;;;;;;;;;;5014189;28;20060;-82
2023/05/03 08:39:17;;;;;;;4.43;4.13;;;;;;;;;;5030738;28;20068;-81
2023/05/03 08:41:45;;;;;;;5.18;4.78;;;;;;;;;;5014572;28;20050;-80
2023/05/03 08:44:16;;;;;;;5.25;4.75;;;;;;;;;;5004116;28;20037;-83
2023/05/03 08:46:44;;;;;;;4.70;4.30;;;;;;;;;;5015309;28;20107;-80
2023/05/03 08:49:14;;;;;;;3.55;3.35;;;;;;;;;;5008350;28;20038;-80
2023/05/03 08:51:46;;;;;;;3.75;3.45;;;;;;;;;;5014454;28;20041;-80
2023/05/03 08:54:14;;;;;;;5.00;3.72;;;;;;;;;;5024497;28;20045;-82
2023/05/03 08:56:42;;;;;;;9.10;4.32;;;;;;;;;;5025915;28;20033;-81
2023/05/03 08:59:10;;;;;;;5.88;3.10;;;;;;;;;;5033247;28;20100;-86
2023/05/03 09:01:38;;;;;;;3.20;2.90;;;;;;;;;;5032334;28;20041;-84
2023/05/03 09:04:07;;;;;;;8.02;4.13;;;;;;;;;;5031316;28;20076;-83
2023/05/03 09:06:35;;;;;;;11.52;3.88;;;;;;;;;;5028880;28;20038;-80
2023/05/03 09:09:07;;;;;;;4.72;3.08;;;;;;;;;;5031702;28;20511;-79
2023/05/03 09:11:36;;;;;;;3.75;3.10;;;;;;;;;;5025248;28;20060;-81
2023/05/03 09:14:14;;;;;;;2.95;2.75;;;;;;;;;;5029984;28;20587;-84
2023/05/03 09:16:43;;;;;;;3.80;2.92;;;;;;;;;;5016211;28;20073;-85
2023/05/03 09:19:11;;;;;;;3.05;2.85;;;;;;;;;;5016984;28;20539;-82
2023/05/03 09:21:40;;;;;;;2.83;2.63;;;;;;;;;;5043459;28;20105;-85
2023/05/03 09:24:14;;;;;;;2.15;2.05;;;;;;;;;;5043340;28;20137;-80
2023/05/03 09:26:42;;;;;;;3.45;3.25;;;;;;;;;;5033063;28;20144;-81
2023/05/03 09:29:09;;;;;;;4.40;4.07;;;;;;;;;;5020604;28;20452;-82
2023/05/03 09:31:37;;;;;;;3.05;2.85;;;;;;;;;;5018617;28;20053;-80
2023/05/03 09:34:21;;;;;;;2.90;2.70;;;;;;;;;;5022501;28;20049;-80
2023/05/03 09:36:48;;;;;;;3.50;3.22;;;;;;;;;;5035539;28;20049;-81
2023/05/03 09:39:17;;;;;;;3.83;3.53;;;;;;;;;;5024591;28;20056;-83
2023/05/03 09:41:44;;;;;;;3.60;3.40;;;;;;;;;;5024710;28;20584;-84
2023/05/03 09:44:12;;;;;;;18.30;4.18;;;;;;;;;;5006973;28;20042;-83
2023/05/03 09:46:39;;;;;;;3.38;2.88;;;;;;;;;;5032686;28;20084;-84
2023/05/03 09:49:06;;;;;;;3.10;2.80;;;;;;;;;;5032368;28;20045;-81
2023/05/03 09:51:34;;;;;;;3.20;3.00;;;;;;;;;;5032504;28;20423;-81
2023/05/03 09:54:02;;;;;;;3.33;3.03;;;;;;;;;;5032551;28;20120;-83
2023/05/03 09:56:30;;;;;;;4.00;3.70;;;;;;;;;;5029604;28;20152;-81
2023/05/03 09:58:57;;;;;;;4.47;3.53;;;;;;;;;;5019545;28;20050;-80
2023/05/03 10:01:25;;;;;;;3.83;3.55;;;;;;;;;;5022096;28;20548;-84
2023/05/03 10:03:56;;;;;;;4.20;3.80;;;;;;;;;;4997710;28;20045;-81
2023/05/03 10:06:27;;;;;;;3.40;3.20;;;;;;;;;;4997144;28;20072;-79
2023/05/03 10:08:55;;;;;;;;;;;;;;;;;;5014925;28;20046;-81
2023/05/03 10:11:24;;;;;;;4.78;4.30;;;;;;;;;;5005506;28;19929;-81
2023/05/03 10:13:51;;;;;;;3.60;3.40;;;;;;;;;;5017338;28;20443;-79
2023/05/03 10:16:33;;;;;;;4.05;3.75;;;;;;;;;;5019610;28;20053;-81
2023/05/03 10:19:09;;;;;;;3.45;3.25;;;;;;;;;;5017555;28;20057;-83
2023/05/03 10:21:58;;;;;;;9.20;8.40;;;;;;;;;;5010659;28;20053;-79
2023/05/03 10:24:26;;;;;;;8.73;7.97;;;;;;;;;;5021770;28;20491;-80
2023/05/03 10:26:56;;;;;;;7.60;7.00;;;;;;;;;;5026358;28;20455;-80
2023/05/03 10:29:45;;;;;;;7.22;6.53;;;;;;;;;;5022276;28;20057;-83
2023/05/03 10:32:31;;;;;;;7.40;6.80;;;;;;;;;;5025094;28;20061;-82
2023/05/03 10:35:02;;;;;;;7.13;6.43;;;;;;;;;;5027787;28;20073;-81
2023/05/03 10:37:30;;;;;;;;;;;;;;;;;;5024139;28;20052;-80
2023/05/03 10:40:08;;;;;;;5.53;5.13;;;;;;;;;;5033843;28;19975;-86
2023/05/03 10:42:36;;;;;;;6.47;5.93;;;;;;;;;;5007096;28;20042;-79
2023/05/03 10:45:06;;;;;;;6.93;6.32;;;;;;;;;;5024025;28;20049;-82
2023/05/03 10:47:34;;;;;;;8.18;7.47;;;;;;;;;;5027186;28;20042;-79
2023/05/03 10:50:16;;;;;;;8.60;7.90;;;;;;;;;;5017965;28;20056;-80
2023/05/03 10:52:44;;;;;;;7.35;6.65;;;;;;;;;;5016851;28;20053;-81
2023/05/03 10:55:12;;;;;;;6.20;5.70;;;;;;;;;;5023729;28;20073;-80
2023/05/03 10:57:40;;;;;;;6.72;6.13;;;;;;;;;;5022109;28;20049;-85
2023/05/03 11:00:12;;;;;;;7.07;6.47;;;;;;;;;;5025406;28;20034;-84
2023/05/03 11:02:59;;;;;;;5.75;5.20;;;;;;;;;;5005130;28;20079;-85
2023/05/03 11:05:28;;;;;;;5.15;4.75;;;;;;;;;;5010612;28;20711;-83
2023/05/03 11:08:08;;;;;;;4.35;4.05;;;;;;;;;;5024543;28;20038;-85
2023/05/03 11:10:36;;;;;;;6.03;5.53;;;;;;;;;;5005789;28;20041;-84
2023/05/03 11:13:03;;;;;;;4.85;4.55;;;;;;;;;;5028574;28;20056;-82
2023/05/03 11:15:31;;;;;;;7.28;6.57;;;;;;;;;;5004124;28;20061;-81
2023/05/03 11:17:58;;;;;;;5.57;5.13;;;;;;;;;;5008845;28;20523;-83
2023/05/03 11:20:26;;;;;;;5.72;5.22;;;;;;;;;;5020099;28;20050;-84
2023/05/03 11:22:54;;;;;;;5.30;4.90;;;;;;;;;;5013521;28;20061;-80
2023/05/03 11:25:21;;;;;;;4.60;4.30;;;;;;;;;;5030721;28;20416;-81
2023/05/03 11:27:49;;;;;;;5.93;5.22;;;;;;;;;;5022939;28;20092;-84
2023/05/03 11:30:17;;;;;;;6.80;6.30;;;;;;;;;;5034101;28;20038;-81
2023/05/03 11:32:44;;;;;;;5.32;4.93;;;;;;;;;;5021808;28;20073;-82
2023/05/03 11:35:14;;;;;;;5.38;4.97;;;;;;;;;;5026078;28;20056;-84
2023/05/03 11:37:43;;;;;;;5.07;4.57;;;;;;;;;;5026528;28;20145;-85
2023/05/03 11:40:15;;;;;;;4.10;3.80;;;;;;;;;;5017150;28;20072;-82
2023/05/03 11:42:57;;;;;;;3.53;3.30;;;;;;;;;;5002735;28;20045;-86
2023/05/03 11:45:26;;;;;;;3.03;2.83;;;;;;;;;;5023330;28;20648;-81
2023/05/03 11:47:53;;;;;;;4.10;3.80;;;;;;;;;;5016800;28;20053;-84
2023/05/03 11:50:40;;;;;;;3.67;3.35;;;;;;;;;;5021370;28;20218;-83
2023/05/03 11:53:07;;;;;;;4.57;4.28;;;;;;;;;;5014298;28;20045;-82
2023/05/03 11:55:37;;;;;;;3.20;3.00;;;;;;;;;;5025413;28;20057;-83
2023/05/03 11:58:07;;;;;;;2.83;2.63;;;;;;;;;;5025738;28;20527;-82
2023/05/03 12:00:36;;;;;;;3.75;3.45;;;;;;;;;;5031782;28;20130;-80
2023/05/03 12:03:03;;;;;;;3.10;2.90;;;;;;;;;;5022940;28;20049;-82
2023/05/03 12:05:31;;;;;;;3.55;2.80;;;;;;;;;;5023356;28;20041;-83
2023/05/03 12:07:59;;;;;;;3.25;3.00;;;;;;;;;;5032407;28;20045;-81
2023/05/03 12:10:32;;;;;;;4.35;3.95;;;;;;;;;;5025919;28;20049;-83
2023/05/03 12:13:02;;;;;;;10.85;4.20;;;;;;;;;;5016597;28;20708;-81
2023/05/03 12:15:31;;;;;;;12.27;3.30;;;;;;;;;;5027116;28;20396;-82
2023/05/03 12:18:01;;;;;;;20.77;5.13;;;;;;;;;;5026090;28;20057;-82
2023/05/03 12:20:31;;;;;;;2.40;2.20;;;;;;;;;;5031800;28;20033;-84
2023/05/03 12:23:07;;;;;;;2.03;1.92;;;;;;;;;;5022064;28;20045;-80
2023/05/03 12:25:37;;;;;;;2.80;2.60;;;;;;;;;;5030499;28;20068;-79
2023/05/03 12:28:07;;;;;;;2.50;2.40;;;;;;;;;;5014236;28;20033;-78
2023/05/03 12:30:37;;;;;;;2.22;1.70;;;;;;;;;;5024279;28;20100;-81
2023/05/03 12:33:07;;;;;;;1.80;1.70;;;;;;;;;;5024558;28;20073;-81
2023/05/03 12:35:37;;;;;;;1.95;1.85;;;;;;;;;;5018396;28;20066;-80
2023/05/03 12:38:07;;;;;;;2.40;2.30;;;;;;;;;;5022083;28;20427;-79
2023/05/03 12:40:37;;;;;;;2.30;2.10;;;;;;;;;;5021463;28;20034;-78
2023/05/03 12:43:06;;;;;;;2.55;2.40;;;;;;;;;;5024320;28;20557;-79
2023/05/03 12:45:34;;;;;;;2.45;2.03;;;;;;;;;;5022895;28;20057;-80
2023/05/03 12:48:01;;;;;;;2.20;2.00;;;;;;;;;;5019209;28;20096;-82
2023/05/03 12:50:29;;;;;;;2.00;1.90;;;;;;;;;;5024393;28;20058;-80
2023/05/03 12:53:00;;;;;;;1.90;1.80;;;;;;;;;;5033263;23;20049;-85
2023/05/03 12:56:15;;;;;;;2.30;2.10;;;;;;;;;;5011501;28;20404;-82
2023/05/03 13:00:27;;;;;;;1.50;1.40;;;;;;;;;;4979620;28;20128;-81
2023/05/03 13:04:25;;;;;;;1.70;1.60;;;;;;;;;;5003056;28;20120;-82
2023/05/03 13:07:32;;;;;;;1.95;1.85;;;;;;;;;;4958356;28;20483;-82
2023/05/03 13:10:59;;;;;;;1.50;1.40;;;;;;;;;;4981392;28;20141;-82
2023/05/03 13:14:17;;;;;;;1.75;1.65;;;;;;;;;;4993418;28;20046;-85
2023/05/03 13:17:23;;;;;;;2.15;2.05;;;;;;;;;;4993288;28;20046;-82
2023/05/03 13:21:16;;;;;;;1.70;1.60;;;;;;;;;;4933226;29;20043;-83
2023/05/03 13:28:06;;;;;;;1.20;1.20;;;;;;;;;;4933966;29;20138;-84
2023/05/03 13:35:47;;;;;;;1.80;1.70;;;;;;;;;;4888644;29;20193;-82
2023/05/03 13:38:41;;;;;;;2.40;2.20;;;;;;;;;;4790704;29;20071;-86
2023/05/03 13:42:02;;;;;;;2.30;2.20;;;;;;;;;;4822474;29;20053;-85
2023/05/03 13:45:09;;;;;;;;;;;;;;;;;;;;;
2023/05/03 13:54:59;;;;;;;1.23;1.23;;;;;;;;;;4926937;29;20060;-85
2023/05/03 13:59:06;;;;;;;;;;;;;;;;;;;;;
2023/05/03 14:05:15;;;;;;;1.20;1.20;;;;;;;;;;4965427;28;20054;-84
2023/05/03 14:07:43;;;;;;;1.70;1.60;;;;;;;;;;4956069;28;20039;-84
2023/05/03 14:10:10;;;;;;;1.48;1.38;;;;;;;;;;4981227;28;20070;-86
2023/05/03 14:12:38;;;;;;;1.20;1.20;;;;;;;;;;4966197;28;20073;-85
2023/05/03 14:15:06;;;;;;;2.00;1.90;;;;;;;;;;4976960;28;20417;-83
2023/05/03 14:17:33;;;;;;;1.48;1.48;;;;;;;;;;4980242;28;20055;-83
2023/05/03 14:20:07;;;;;;;2.00;1.90;;;;;;;;;;4964661;28;20050;-84
2023/05/03 14:22:34;;;;;;;2.75;2.63;;;;;;;;;;4980063;28;20047;-85
2023/05/03 14:25:03;;;;;;;2.60;2.50;;;;;;;;;;4981680;28;20104;-86
2023/05/03 14:27:32;;;;;;;3.20;3.00;;;;;;;;;;4979489;28;20053;-84
2023/05/03 14:29:59;;;;;;;3.00;2.80;;;;;;;;;;4970596;28;20484;-84
2023/05/03 14:32:26;;;;;;;3.80;2.70;;;;;;;;;;4971558;28;20051;-84
2023/05/03 14:34:54;;;;;;;2.20;2.10;;;;;;;;;;4971476;28;20497;-84
2023/05/03 14:37:21;;;;;;;2.97;2.78;;;;;;;;;;4971519;28;20047;-85
2023/05/03 14:39:48;;;;;;;2.35;2.25;;;;;;;;;;4952443;28;20432;-85
2023/05/03 14:42:16;;;;;;;2.22;2.13;;;;;;;;;;4971304;28;20128;-85
2023/05/03 14:44:43;;;;;;;2.00;1.90;;;;;;;;;;4954171;28;20047;-84
2023/05/03 14:47:11;;;;;;;2.92;2.72;;;;;;;;;;4972719;28;20066;-85
2023/05/03 14:49:41;;;;;;;2.10;2.00;;;;;;;;;;4971447;28;20574;-85
2023/05/03 14:52:08;;;;;;;1.98;1.88;;;;;;;;;;4970450;28;20054;-86
2023/05/03 14:54:36;;;;;;;1.58;1.58;;;;;;;;;;4974322;28;20440;-86
2023/05/03 14:57:04;;;;;;;2.90;2.70;;;;;;;;;;4971614;28;20529;-85
2023/05/03 14:59:32;;;;;;;2.30;2.10;;;;;;;;;;4973737;28;20497;-85
2023/05/03 15:02:00;;;;;;;3.00;2.80;;;;;;;;;;4975340;28;20817;-86
2023/05/03 15:04:28;;;;;;;2.25;2.15;;;;;;;;;;4974576;28;20061;-85
2023/05/03 15:07:00;;;;;;;2.80;2.60;;;;;;;;;;4974850;28;20197;-85
2023/05/03 15:09:27;;;;;;;2.45;2.35;;;;;;;;;;4975054;28;20152;-85
2023/05/03 15:11:55;;;;;;;1.70;1.60;;;;;;;;;;4974025;28;20047;-85
2023/05/03 15:14:22;;;;;;;2.00;1.90;;;;;;;;;;4975202;28;20054;-84
2023/05/03 15:16:50;;;;;;;6.38;1.60;;;;;;;;;;4956970;28;20099;-87
2023/05/03 15:19:17;;;;;;;2.60;1.58;;;;;;;;;;4976146;28;20166;-85
2023/05/03 15:21:45;;;;;;;1.00;1.00;;;;;;;;;;4947803;28;20105;-85
2023/05/03 15:24:13;;;;;;;1.80;1.70;;;;;;;;;;4979777;28;20043;-86
2023/05/03 15:26:41;;;;;;;2.17;2.05;;;;;;;;;;4976833;28;20125;-85
2023/05/03 15:29:08;;;;;;;1.33;1.33;;;;;;;;;;4967385;28;20623;-85
2023/05/03 15:31:36;;;;;;;2.30;2.20;;;;;;;;;;4969118;28;20043;-85
2023/05/03 15:34:04;;;;;;;1.67;1.58;;;;;;;;;;4969093;28;20516;-86
2023/05/03 15:36:32;;;;;;;1.30;1.30;;;;;;;;;;4971373;28;20054;-85